createdAt,value
2019-03-30T00:00:38.188Z,25.90
2019-03-30T00:03:08.865Z,27.93
2019-03-30T00:05:39.382Z,35.27
2019-03-30T00:08:09.886Z,32.23
2019-03-30T00:10:40.407Z,21.80
2019-03-30T00:13:10.898Z,36.37
2019-03-30T00:15:41.351Z,32.63
2019-03-30T00:18:11.886Z,30.67
2019-03-30T00:20:42.311Z,31.07
2019-03-30T00:23:12.862Z,29.20
2019-03-30T00:25:43.854Z,29.60
2019-03-30T00:28:14.380Z,28.23
2019-03-30T00:30:44.842Z,32.57
2019-03-30T00:33:15.415Z,33.13
2019-03-30T00:35:45.894Z,28.63
2019-03-30T00:38:16.561Z,33.90
2019-03-30T00:40:47.115Z,29.30
2019-03-30T00:43:17.616Z,28.20
2019-03-30T00:45:48.215Z,30.70
2019-03-30T00:48:18.775Z,26.57
2019-03-30T00:50:49.426Z,30.40
2019-03-30T00:53:19.895Z,27.00
2019-03-30T00:55:50.379Z,30.57
2019-03-30T00:58:20.981Z,34.40
2019-03-30T01:00:51.582Z,27.40
2019-03-30T01:03:22.189Z,26.87
2019-03-30T01:05:52.614Z,25.90
2019-03-30T01:08:23.628Z,33.43
2019-03-30T01:10:54.190Z,26.07
2019-03-30T01:13:24.753Z,30.63
2019-03-30T01:15:55.496Z,27.70
2019-03-30T01:18:26.000Z,31.33
2019-03-30T01:20:56.457Z,31.73
2019-03-30T01:23:26.990Z,28.87
2019-03-30T01:25:57.478Z,27.00
2019-03-30T01:28:28.057Z,29.73
2019-03-30T01:30:58.530Z,32.63
2019-03-30T01:33:29.117Z,29.17
2019-03-30T01:35:59.595Z,30.07
2019-03-30T01:38:30.073Z,31.77
2019-03-30T01:41:00.702Z,28.40
2019-03-30T01:43:31.282Z,25.23
2019-03-30T01:46:01.835Z,35.57
2019-03-30T01:48:32.371Z,29.63
2019-03-30T01:51:02.895Z,29.77
2019-03-30T01:53:33.434Z,35.50
2019-03-30T01:56:03.986Z,29.03
2019-03-30T01:58:34.494Z,31.20
2019-03-30T02:01:05.034Z,33.23
2019-03-30T02:03:35.662Z,32.47
2019-03-30T02:06:06.213Z,32.57
2019-03-30T02:08:36.715Z,30.33
2019-03-30T02:11:07.248Z,27.47
2019-03-30T02:13:37.738Z,22.30
2019-03-30T02:16:08.360Z,25.20
2019-03-30T02:18:38.931Z,28.60
2019-03-30T02:21:09.378Z,25.47
2019-03-30T02:23:39.001Z,24.53
2019-03-30T02:26:09.554Z,32.50
2019-03-30T02:28:40.082Z,27.30
2019-03-30T02:31:10.598Z,29.10
2019-03-30T02:33:41.139Z,28.57
2019-03-30T02:36:11.764Z,33.10
2019-03-30T02:38:41.415Z,29.40
2019-03-30T02:41:11.874Z,25.70
2019-03-30T02:43:42.323Z,27.83
2019-03-30T02:46:12.916Z,28.90
2019-03-30T02:48:43.519Z,26.77
2019-03-30T02:51:14.169Z,26.73
2019-03-30T02:53:44.608Z,27.33
2019-03-30T02:56:15.283Z,31.53
2019-03-30T02:58:45.784Z,30.30
2019-03-30T03:01:16.413Z,26.70
2019-03-30T03:03:46.926Z,27.50
2019-03-30T03:06:17.564Z,29.33
2019-03-30T03:08:48.059Z,31.33
2019-03-30T03:11:18.621Z,30.37
2019-03-30T03:13:49.099Z,24.90
2019-03-30T03:16:19.658Z,30.10
2019-03-30T03:18:50.275Z,29.87
2019-03-30T03:21:20.836Z,32.47
2019-03-30T03:23:51.411Z,26.77
2019-03-30T03:26:21.991Z,27.87
2019-03-30T03:28:52.590Z,30.23
2019-03-30T03:31:23.148Z,29.30
2019-03-30T03:33:53.661Z,31.90
2019-03-30T03:36:24.130Z,25.83
2019-03-30T03:38:54.584Z,29.00
2019-03-30T03:41:25.083Z,28.60
2019-03-30T03:43:55.554Z,30.67
2019-03-30T03:46:26.146Z,31.17
2019-03-30T03:48:56.648Z,27.90
2019-03-30T03:51:27.224Z,32.47
2019-03-30T03:53:57.867Z,42.13
2019-03-30T03:56:28.396Z,34.73
2019-03-30T03:58:58.872Z,28.27
2019-03-30T04:01:29.414Z,37.47
2019-03-30T04:03:59.988Z,36.03
2019-03-30T04:06:30.616Z,31.07
2019-03-30T04:09:01.955Z,27.87
2019-03-30T04:11:33.028Z,28.30
2019-03-30T04:14:03.592Z,29.00
2019-03-30T04:16:34.100Z,31.83
2019-03-30T04:19:04.683Z,31.30
2019-03-30T04:21:43.624Z,31.93
2019-03-30T04:24:07.438Z,32.57
2019-03-30T04:26:37.976Z,28.53
2019-03-30T04:29:08.419Z,27.20
2019-03-30T04:31:38.973Z,39.93
2019-03-30T04:34:09.514Z,27.57
2019-03-30T04:36:39.167Z,35.17
2019-03-30T04:39:09.670Z,28.03
2019-03-30T04:41:40.314Z,29.37
2019-03-30T04:44:10.799Z,29.30
2019-03-30T04:46:41.264Z,34.20
2019-03-30T04:49:11.738Z,35.77
2019-03-30T04:51:42.236Z,27.00
2019-03-30T04:54:12.690Z,33.87
2019-03-30T04:56:43.299Z,35.10
2019-03-30T04:59:13.756Z,32.13
2019-03-30T05:01:44.247Z,33.47
2019-03-30T05:04:14.696Z,30.70
2019-03-30T05:06:45.185Z,28.10
2019-03-30T05:09:15.717Z,33.53
2019-03-30T05:11:46.277Z,37.73
2019-03-30T05:14:16.846Z,36.57
2019-03-30T05:16:47.345Z,43.77
2019-03-30T05:19:18.247Z,38.33
2019-03-30T05:21:48.913Z,34.57
2019-03-30T05:26:48.900Z,43.97
2019-03-30T05:29:19.323Z,40.97
2019-03-30T05:31:49.862Z,46.07
2019-03-30T05:34:20.375Z,43.40
2019-03-30T05:36:50.854Z,36.70
2019-03-30T05:39:21.336Z,36.70
2019-03-30T05:41:52.170Z,36.87
2019-03-30T05:44:28.693Z,67.87
2019-03-30T05:47:01.603Z,41.67
2019-03-30T05:49:32.168Z,44.47
2019-03-30T05:52:05.221Z,39.13
2019-03-30T05:54:35.974Z,40.80
2019-03-30T05:57:06.602Z,38.13
2019-03-30T05:59:37.162Z,35.63
2019-03-30T06:02:07.904Z,32.77
2019-03-30T06:04:38.394Z,40.27
2019-03-30T06:07:08.859Z,36.53
2019-03-30T06:09:39.441Z,40.23
2019-03-30T06:12:09.980Z,30.83
2019-03-30T06:14:41.087Z,36.70
2019-03-30T06:17:12.370Z,33.30
2019-03-30T06:19:44.433Z,38.13
2019-03-30T06:22:14.988Z,30.97
2019-03-30T06:24:45.470Z,31.70
2019-03-30T06:27:16.045Z,32.20
2019-03-30T06:30:07.315Z,38.40
2019-03-30T06:32:37.920Z,34.20
2019-03-30T06:35:08.484Z,33.53
2019-03-30T06:37:41.144Z,34.70
2019-03-30T06:40:11.649Z,31.90
2019-03-30T06:42:42.347Z,38.00
2019-03-30T06:45:13.078Z,41.63
2019-03-30T06:47:43.542Z,34.27
2019-03-30T06:50:14.117Z,39.57
2019-03-30T06:52:56.826Z,40.57
2019-03-30T06:55:16.901Z,34.40
2019-03-30T06:57:47.537Z,33.40
2019-03-30T07:00:19.748Z,41.33
2019-03-30T07:02:50.194Z,35.47
2019-03-30T07:05:20.733Z,40.07
2019-03-30T07:07:51.208Z,45.73
2019-03-30T07:10:21.755Z,32.63
2019-03-30T07:12:52.303Z,37.13
2019-03-30T07:15:22.789Z,36.47
2019-03-30T07:17:53.258Z,41.07
2019-03-30T07:20:28.293Z,33.10
2019-03-30T07:23:11.131Z,38.10
2019-03-30T07:25:31.011Z,34.83
2019-03-30T07:28:01.628Z,36.30
2019-03-30T07:30:32.252Z,38.17
2019-03-30T07:33:03.112Z,36.13
2019-03-30T07:35:33.871Z,40.37
2019-03-30T07:38:04.395Z,36.90
2019-03-30T07:40:35.284Z,44.97
2019-03-30T07:43:05.834Z,36.93
2019-03-30T07:45:36.398Z,41.23
2019-03-30T07:48:07.088Z,40.50
2019-03-30T07:53:06.268Z,41.47
2019-03-30T07:55:37.067Z,42.10
2019-03-30T07:58:07.553Z,39.90
2019-03-30T08:00:38.093Z,40.23
2019-03-30T08:03:08.584Z,37.67
2019-03-30T08:05:39.137Z,36.77
2019-03-30T08:08:09.704Z,39.93
2019-03-30T08:10:40.259Z,35.63
2019-03-30T08:13:10.821Z,38.50
2019-03-30T08:15:41.290Z,34.17
2019-03-30T08:18:12.628Z,33.40
2019-03-30T08:20:43.091Z,37.47
2019-03-30T08:23:13.622Z,41.43
2019-03-30T08:25:44.080Z,37.67
2019-03-30T08:28:14.582Z,30.93
2019-03-30T08:30:45.100Z,38.87
2019-03-30T08:33:15.733Z,36.87
2019-03-30T08:35:46.276Z,38.67
2019-03-30T08:38:16.874Z,34.70
2019-03-30T08:40:47.344Z,31.07
2019-03-30T08:43:17.858Z,32.40
2019-03-30T08:45:49.058Z,32.30
2019-03-30T08:48:19.833Z,36.90
2019-03-30T08:50:50.650Z,32.30
2019-03-30T08:53:21.318Z,29.70
2019-03-30T08:55:52.046Z,32.33
2019-03-30T08:58:22.709Z,30.30
2019-03-30T09:00:53.425Z,37.30
2019-03-30T09:03:24.307Z,27.57
2019-03-30T09:05:54.774Z,28.80
2019-03-30T09:08:25.512Z,25.00
2019-03-30T09:10:56.745Z,27.87
2019-03-30T09:13:27.361Z,25.97
2019-03-30T09:16:06.591Z,27.53
2019-03-30T09:18:37.440Z,21.67
2019-03-30T09:21:07.943Z,23.97
2019-03-30T09:23:38.449Z,28.77
2019-03-30T09:26:09.332Z,27.23
2019-03-30T09:28:39.931Z,23.80
2019-03-30T09:31:10.523Z,25.07
2019-03-30T09:33:41.096Z,24.07
2019-03-30T09:36:12.588Z,22.33
2019-03-30T09:38:43.377Z,26.43
2019-03-30T09:41:13.928Z,26.17
2019-03-30T09:43:44.653Z,28.07
2019-03-30T09:46:15.150Z,25.80
2019-03-30T09:48:46.124Z,27.33
2019-03-30T09:51:16.731Z,28.83
2019-03-30T09:53:47.377Z,25.63
2019-03-30T09:56:17.953Z,28.50
2019-03-30T09:58:48.530Z,27.03
2019-03-30T10:01:19.218Z,40.17
2019-03-30T10:03:49.747Z,28.57
2019-03-30T10:06:20.571Z,28.07
2019-03-30T10:08:51.238Z,25.77
2019-03-30T10:11:21.766Z,23.63
2019-03-30T10:13:52.463Z,26.80
2019-03-30T10:16:24.431Z,29.10
2019-03-30T10:18:55.144Z,26.40
2019-03-30T10:21:25.595Z,27.60
2019-03-30T10:23:56.198Z,26.50
2019-03-30T10:26:26.695Z,28.20
2019-03-30T10:28:57.189Z,26.60
2019-03-30T10:31:27.736Z,27.27
2019-03-30T10:33:58.326Z,27.50
2019-03-30T10:36:28.885Z,27.40
2019-03-30T10:38:59.402Z,25.67
2019-03-30T10:41:29.970Z,27.80
2019-03-30T10:44:00.476Z,32.10
2019-03-30T10:46:30.948Z,26.27
2019-03-30T10:49:01.447Z,27.50
2019-03-30T10:51:32.023Z,28.20
2019-03-30T10:54:02.670Z,28.73
2019-03-30T10:56:33.219Z,29.37
2019-03-30T10:59:03.926Z,29.50
2019-03-30T11:01:34.398Z,26.03
2019-03-30T11:04:04.934Z,24.97
2019-03-30T11:06:35.581Z,27.47
2019-03-30T11:09:06.983Z,27.73
2019-03-30T11:11:37.934Z,25.77
2019-03-30T11:14:08.516Z,23.67
2019-03-30T11:16:39.040Z,23.73
2019-03-30T11:19:09.539Z,28.10
2019-03-30T11:21:39.991Z,29.10
2019-03-30T11:24:10.560Z,26.90
2019-03-30T11:26:41.031Z,29.77
2019-03-30T11:29:11.780Z,27.97
2019-03-30T11:31:42.688Z,24.17
2019-03-30T11:34:13.195Z,26.93
2019-03-30T11:36:43.732Z,28.27
2019-03-30T11:39:17.087Z,25.67
2019-03-30T11:41:47.497Z,24.23
2019-03-30T11:44:18.621Z,24.73
2019-03-30T11:46:49.143Z,20.90
2019-03-30T11:49:19.649Z,24.33
2019-03-30T11:51:50.211Z,25.70
2019-03-30T11:54:20.858Z,25.30
2019-03-30T11:56:51.345Z,20.87
2019-03-30T11:59:21.856Z,21.60
2019-03-30T12:01:52.471Z,21.80
2019-03-30T12:04:22.975Z,21.70
2019-03-30T12:06:53.483Z,21.00
2019-03-30T12:09:24.041Z,22.73
2019-03-30T12:11:54.623Z,21.30
2019-03-30T12:14:25.194Z,22.40
2019-03-30T12:16:55.660Z,18.97
2019-03-30T12:19:26.152Z,24.10
2019-03-30T12:21:56.638Z,20.80
2019-03-30T12:24:27.163Z,24.00
2019-03-30T12:26:57.714Z,22.10
2019-03-30T12:29:28.284Z,18.37
2019-03-30T12:31:58.847Z,19.90
2019-03-30T12:34:29.374Z,23.70
2019-03-30T12:37:00.003Z,22.60
2019-03-30T12:39:30.541Z,18.87
2019-03-30T12:42:01.149Z,21.23
2019-03-30T12:44:31.948Z,20.27
2019-03-30T12:47:02.441Z,22.60
2019-03-30T12:49:33.018Z,17.77
2019-03-30T12:52:03.542Z,18.00
2019-03-30T12:54:34.053Z,20.80
2019-03-30T12:57:04.714Z,25.93
2019-03-30T12:59:35.232Z,23.87
2019-03-30T13:02:06.087Z,17.60
2019-03-30T13:04:36.587Z,15.53
2019-03-30T13:07:07.058Z,16.93
2019-03-30T13:09:37.583Z,18.00
2019-03-30T13:12:08.083Z,16.27
2019-03-30T13:14:38.567Z,18.13
2019-03-30T13:17:09.035Z,21.50
2019-03-30T13:19:39.526Z,18.30
2019-03-30T13:22:10.034Z,16.73
2019-03-30T13:24:40.547Z,13.53
2019-03-30T13:27:12.929Z,21.87
2019-03-30T13:29:43.210Z,13.47
2019-03-30T13:32:14.626Z,14.27
2019-03-30T13:34:45.103Z,17.07
2019-03-30T13:37:17.178Z,15.70
2019-03-30T13:39:47.679Z,15.07
2019-03-30T13:42:18.125Z,14.53
2019-03-30T13:44:48.702Z,18.70
2019-03-30T13:47:19.150Z,16.80
2019-03-30T13:49:49.642Z,19.33
2019-03-30T13:52:20.632Z,18.03
2019-03-30T13:54:51.191Z,21.00
2019-03-30T13:57:21.730Z,15.50
2019-03-30T13:59:52.287Z,14.67
2019-03-30T14:02:22.835Z,16.10
2019-03-30T14:07:21.912Z,21.87
2019-03-30T14:09:52.395Z,19.57
2019-03-30T14:12:22.859Z,17.33
2019-03-30T14:14:53.364Z,22.53
2019-03-30T14:17:23.819Z,18.43
2019-03-30T14:19:54.724Z,15.43
2019-03-30T14:22:25.477Z,21.83
2019-03-30T14:24:57.498Z,16.87
2019-03-30T14:27:28.004Z,14.63
2019-03-30T14:29:58.453Z,17.70
2019-03-30T14:32:29.081Z,17.93
2019-03-30T14:34:59.609Z,18.03
2019-03-30T14:37:35.803Z,14.90
2019-03-30T14:40:07.553Z,17.60
2019-03-30T14:42:38.055Z,17.60
2019-03-30T14:45:08.706Z,33.40
2019-03-30T14:47:39.263Z,19.20
2019-03-30T14:50:09.814Z,22.10
2019-03-30T14:52:40.404Z,14.60
2019-03-30T14:55:10.902Z,13.23
2019-03-30T14:57:41.378Z,13.07
2019-03-30T15:00:11.985Z,14.00
2019-03-30T15:02:42.603Z,16.33
2019-03-30T15:05:13.229Z,11.80
2019-03-30T15:07:42.912Z,14.70
2019-03-30T15:10:13.483Z,12.60
2019-03-30T15:12:43.942Z,15.83
2019-03-30T15:15:14.461Z,16.13
2019-03-30T15:17:45.039Z,13.80
2019-03-30T15:20:26.712Z,12.47
2019-03-30T15:23:00.267Z,15.30
2019-03-30T15:25:30.783Z,10.63
2019-03-30T15:28:01.254Z,13.23
2019-03-30T15:30:31.786Z,18.63
2019-03-30T15:33:03.523Z,19.50
2019-03-30T15:35:34.113Z,19.13
2019-03-30T15:38:04.570Z,14.17
2019-03-30T15:40:35.059Z,14.37
2019-03-30T15:43:05.621Z,13.10
2019-03-30T15:45:36.120Z,12.53
2019-03-30T15:48:06.579Z,11.73
2019-03-30T15:50:37.044Z,13.50
2019-03-30T15:53:07.513Z,15.37
2019-03-30T15:55:38.066Z,45.40
2019-03-30T15:58:08.613Z,14.77
2019-03-30T16:00:39.086Z,18.10
2019-03-30T16:03:09.636Z,30.20
2019-03-30T16:05:40.166Z,19.83
2019-03-30T16:08:10.655Z,15.70
2019-03-30T16:10:41.182Z,14.00
2019-03-30T16:13:14.504Z,19.27
2019-03-30T16:15:44.723Z,35.40
2019-03-30T16:18:15.304Z,33.60
2019-03-30T16:20:45.888Z,25.10
2019-03-30T16:23:16.342Z,19.03
2019-03-30T16:25:46.782Z,20.23
2019-03-30T16:28:17.402Z,15.10
2019-03-30T16:30:47.935Z,13.37
2019-03-30T16:33:18.668Z,12.73
2019-03-30T16:35:49.174Z,16.70
2019-03-30T16:38:19.662Z,18.97
2019-03-30T16:40:50.171Z,16.33
2019-03-30T16:43:20.648Z,16.70
2019-03-30T16:45:51.111Z,18.77
2019-03-30T16:48:21.711Z,18.20
2019-03-30T16:50:52.231Z,15.90
2019-03-30T16:53:22.718Z,17.27
2019-03-30T16:55:53.221Z,23.13
2019-03-30T16:58:23.702Z,26.23
2019-03-30T17:01:03.990Z,23.57
2019-03-30T17:03:38.659Z,15.33
2019-03-30T17:06:10.786Z,21.40
2019-03-30T17:08:41.262Z,24.80
2019-03-30T17:11:11.742Z,19.23
2019-03-30T17:13:42.319Z,18.90
2019-03-30T17:16:12.800Z,25.30
2019-03-30T17:18:43.352Z,18.77
2019-03-30T17:21:13.872Z,22.60
2019-03-30T17:23:44.417Z,21.20
2019-03-30T17:26:14.933Z,20.10
2019-03-30T17:28:45.390Z,19.77
2019-03-30T17:31:15.847Z,28.33
2019-03-30T17:33:46.436Z,29.80
2019-03-30T17:36:16.927Z,24.60
2019-03-30T17:38:47.787Z,25.40
2019-03-30T17:41:18.274Z,26.80
2019-03-30T17:43:48.767Z,24.33
2019-03-30T17:46:19.387Z,22.27
2019-03-30T17:48:49.948Z,28.07
2019-03-30T17:51:21.237Z,23.50
2019-03-30T17:53:51.720Z,25.50
2019-03-30T17:56:22.183Z,27.03
2019-03-30T17:58:52.683Z,25.73
2019-03-30T18:01:23.222Z,27.57
2019-03-30T18:03:53.778Z,27.00
2019-03-30T18:06:24.335Z,26.03
2019-03-30T18:08:54.935Z,27.97
2019-03-30T18:11:25.408Z,22.87
2019-03-30T18:13:55.975Z,24.93
2019-03-30T18:16:26.513Z,28.27
2019-03-30T18:18:57.806Z,24.40
2019-03-30T18:21:28.303Z,33.23
2019-03-30T18:23:58.752Z,26.13
2019-03-30T18:26:29.303Z,28.00
2019-03-30T18:28:59.875Z,29.27
2019-03-30T18:31:30.348Z,24.20
2019-03-30T18:34:00.830Z,31.50
2019-03-30T18:36:31.714Z,28.30
2019-03-30T18:39:09.280Z,27.10
2019-03-30T18:41:34.302Z,31.73
2019-03-30T18:44:04.876Z,31.43
2019-03-30T18:46:35.335Z,28.47
2019-03-30T18:49:05.807Z,25.90
2019-03-30T18:51:36.250Z,34.60
2019-03-30T18:54:06.835Z,26.40
2019-03-30T18:56:37.314Z,30.00
2019-03-30T18:59:07.864Z,29.13
2019-03-30T19:01:38.335Z,30.00
2019-03-30T19:04:08.900Z,35.47
2019-03-30T19:06:39.442Z,27.63
2019-03-30T19:09:09.998Z,30.10
2019-03-30T19:11:40.443Z,27.90
2019-03-30T19:14:10.942Z,29.20
2019-03-30T19:16:41.432Z,30.87
2019-03-30T19:19:12.977Z,38.57
2019-03-30T19:21:43.438Z,31.63
2019-03-30T19:24:14.077Z,29.17
2019-03-30T19:26:44.607Z,28.93
2019-03-30T19:29:15.090Z,30.60
2019-03-30T19:31:45.625Z,29.60
2019-03-30T19:34:16.164Z,31.50
2019-03-30T19:36:46.616Z,29.97
2019-03-30T19:39:17.093Z,34.87
2019-03-30T19:41:47.544Z,28.03
2019-03-30T19:44:18.110Z,29.30
2019-03-30T19:46:48.602Z,30.90
2019-03-30T19:49:19.069Z,28.07
2019-03-30T19:51:49.562Z,28.93
2019-03-30T19:54:20.058Z,28.83
2019-03-30T19:56:50.526Z,27.13
2019-03-30T19:59:21.022Z,33.10
2019-03-30T20:01:51.585Z,36.27
2019-03-30T20:04:22.070Z,36.33
2019-03-30T20:06:52.533Z,30.50
2019-03-30T20:09:23.129Z,37.43
2019-03-30T20:11:53.623Z,30.20
2019-03-30T20:14:24.255Z,31.07
2019-03-30T20:16:54.790Z,33.97
2019-03-30T20:19:25.469Z,55.57
2019-03-30T20:21:57.413Z,40.60
2019-03-30T20:24:28.231Z,40.80
2019-03-30T20:26:59.103Z,35.50
2019-03-30T20:29:30.296Z,37.77
2019-03-30T20:32:00.988Z,31.27
2019-03-30T20:34:31.710Z,30.73
2019-03-30T20:37:02.370Z,37.87
2019-03-30T20:39:33.536Z,46.40
2019-03-30T20:42:04.091Z,43.33
2019-03-30T20:44:36.806Z,41.00
2019-03-30T20:47:09.383Z,46.47
2019-03-30T20:49:40.581Z,45.77
2019-03-30T20:52:11.476Z,45.90
2019-03-30T20:54:42.259Z,34.80
2019-03-30T20:57:12.832Z,37.70
2019-03-30T20:59:43.432Z,37.10
2019-03-30T21:02:13.906Z,38.90
2019-03-30T21:04:44.612Z,36.17
2019-03-30T21:07:15.135Z,39.23
2019-03-30T21:09:46.077Z,41.60
2019-03-30T21:12:16.631Z,39.47
2019-03-30T21:14:47.292Z,36.47
2019-03-30T21:17:17.816Z,41.17
2019-03-30T21:19:50.405Z,45.20
2019-03-30T21:22:20.955Z,37.23
2019-03-30T21:24:52.538Z,39.83
2019-03-30T21:27:23.091Z,46.63
2019-03-30T21:29:55.111Z,39.13
2019-03-30T21:32:25.928Z,43.40
2019-03-30T21:34:56.775Z,44.27
2019-03-30T21:37:27.575Z,48.17
2019-03-30T21:39:58.309Z,41.17
2019-03-30T21:42:28.841Z,45.70
2019-03-30T21:44:59.335Z,40.10
2019-03-30T21:47:29.953Z,38.93
2019-03-30T21:50:00.725Z,46.03
2019-03-30T21:52:31.255Z,39.43
2019-03-30T21:55:01.786Z,42.57
2019-03-30T21:57:32.471Z,41.33
2019-03-30T22:00:09.664Z,45.53
2019-03-30T22:02:35.163Z,38.47
2019-03-30T22:05:06.218Z,40.20
2019-03-30T22:07:36.928Z,38.10
2019-03-30T22:10:08.566Z,49.70
2019-03-30T22:12:40.163Z,40.20
2019-03-30T22:15:11.946Z,39.60
2019-03-30T22:17:42.778Z,44.40
2019-03-30T22:20:13.587Z,43.13
2019-03-30T22:22:44.240Z,41.70
2019-03-30T22:25:14.729Z,45.50
2019-03-30T22:27:45.534Z,43.80
2019-03-30T22:30:24.732Z,43.27
2019-03-30T22:32:48.237Z,40.30
2019-03-30T22:35:18.738Z,40.33
2019-03-30T22:37:49.362Z,42.57
2019-03-30T22:40:19.932Z,40.73
2019-03-30T22:42:50.554Z,48.93
2019-03-30T22:45:21.115Z,47.07
2019-03-30T22:47:51.722Z,42.40
2019-03-30T22:50:22.375Z,46.70
2019-03-30T22:52:53.020Z,47.63
2019-03-30T22:55:23.601Z,40.73
2019-03-30T22:57:54.204Z,39.63
2019-03-30T23:00:42.601Z,47.93
2019-03-30T23:03:13.272Z,37.60
2019-03-30T23:05:43.820Z,40.43
2019-03-30T23:08:14.426Z,38.03
2019-03-30T23:10:45.156Z,36.57
2019-03-30T23:13:15.687Z,34.67
2019-03-30T23:15:46.146Z,37.50
2019-03-30T23:18:16.631Z,37.97
2019-03-30T23:20:47.234Z,38.90
2019-03-30T23:23:17.996Z,38.13
2019-03-30T23:25:48.552Z,34.93
2019-03-30T23:28:19.219Z,40.27
2019-03-30T23:30:54.474Z,43.37
2019-03-30T23:33:21.785Z,46.70
2019-03-30T23:35:52.262Z,45.43
2019-03-30T23:38:22.827Z,44.20
2019-03-30T23:40:53.379Z,46.00
2019-03-30T23:43:23.911Z,39.20
2019-03-30T23:45:54.398Z,40.60
2019-03-30T23:48:24.948Z,34.53
2019-03-30T23:50:55.550Z,38.43
2019-03-30T23:53:26.058Z,35.07
2019-03-30T23:55:56.649Z,43.30
2019-03-30T23:58:27.362Z,47.63
